createdAt,value
2018-10-16T00:01:35.846Z,9.17
2018-10-16T00:04:04.939Z,9.03
2018-10-16T00:06:33.760Z,9.30
2018-10-16T00:09:02.562Z,8.97
2018-10-16T00:11:31.371Z,8.53
2018-10-16T00:14:00.195Z,8.97
2018-10-16T00:16:28.999Z,8.67
2018-10-16T00:18:57.807Z,9.03
2018-10-16T00:21:26.628Z,9.30
2018-10-16T00:23:55.438Z,7.80
2018-10-16T00:26:24.255Z,8.47
2018-10-16T00:28:53.067Z,8.50
2018-10-16T00:31:21.880Z,7.17
2018-10-16T00:33:50.687Z,7.77
2018-10-16T00:36:19.506Z,8.17
2018-10-16T00:38:48.313Z,8.57
2018-10-16T00:41:17.122Z,8.00
2018-10-16T00:43:45.938Z,7.77
2018-10-16T00:46:14.785Z,7.53
2018-10-16T00:48:43.575Z,8.43
2018-10-16T00:51:12.379Z,8.40
2018-10-16T00:53:41.181Z,7.90
2018-10-16T00:56:10.011Z,8.00
2018-10-16T00:58:38.820Z,8.63
2018-10-16T01:01:07.622Z,7.57
2018-10-16T01:03:36.446Z,8.97
2018-10-16T01:06:05.315Z,8.23
2018-10-16T01:08:34.109Z,7.77
2018-10-16T01:11:02.918Z,8.17
2018-10-16T01:13:31.731Z,6.30
2018-10-16T01:16:00.532Z,7.93
2018-10-16T01:18:29.335Z,7.40
2018-10-16T01:20:58.133Z,7.57
2018-10-16T01:23:26.947Z,7.53
2018-10-16T01:25:55.752Z,7.47
2018-10-16T01:28:24.583Z,7.37
2018-10-16T01:30:53.415Z,8.07
2018-10-16T01:33:22.231Z,7.67
2018-10-16T01:35:51.038Z,7.70
2018-10-16T01:38:19.855Z,8.07
2018-10-16T01:40:48.650Z,8.03
2018-10-16T01:43:17.456Z,7.47
2018-10-16T01:45:46.266Z,7.90
2018-10-16T01:48:15.077Z,8.37
2018-10-16T01:50:43.870Z,7.60
2018-10-16T01:53:12.691Z,7.90
2018-10-16T01:55:41.498Z,7.90
2018-10-16T01:58:10.311Z,7.93
2018-10-16T02:00:39.150Z,6.83
2018-10-16T02:03:08.242Z,7.97
2018-10-16T02:05:37.323Z,6.50
2018-10-16T02:08:06.836Z,7.33
2018-10-16T02:10:35.662Z,7.83
2018-10-16T02:13:04.695Z,7.67
2018-10-16T02:15:33.522Z,7.17
2018-10-16T02:18:02.356Z,7.47
2018-10-16T02:20:31.172Z,7.57
2018-10-16T02:22:59.988Z,8.07
2018-10-16T02:25:28.800Z,8.27
2018-10-16T02:27:57.602Z,7.53
2018-10-16T02:30:26.440Z,7.57
2018-10-16T02:32:55.238Z,7.50
2018-10-16T02:35:24.055Z,6.97
2018-10-16T02:37:52.865Z,6.90
2018-10-16T02:40:21.689Z,8.00
2018-10-16T02:42:50.500Z,7.30
2018-10-16T02:45:19.340Z,8.10
2018-10-16T02:47:48.151Z,7.47
2018-10-16T02:50:16.973Z,7.17
2018-10-16T02:52:45.766Z,7.03
2018-10-16T02:55:14.587Z,7.77
2018-10-16T02:57:43.391Z,7.53
2018-10-16T03:00:12.216Z,7.17
2018-10-16T03:02:41.121Z,7.30
2018-10-16T03:05:09.940Z,7.63
2018-10-16T03:07:38.751Z,6.73
2018-10-16T03:10:07.571Z,6.83
2018-10-16T03:12:36.446Z,7.07
2018-10-16T03:15:07.786Z,7.30
2018-10-16T03:17:36.618Z,7.87
2018-10-16T03:20:05.521Z,7.80
2018-10-16T03:22:34.328Z,7.67
2018-10-16T03:25:03.156Z,7.87
2018-10-16T03:27:31.954Z,7.43
2018-10-16T03:30:00.781Z,7.63
2018-10-16T03:32:29.607Z,7.53
2018-10-16T03:34:58.427Z,8.00
2018-10-16T03:37:27.236Z,6.37
2018-10-16T03:39:56.064Z,6.97
2018-10-16T03:42:24.871Z,6.93
2018-10-16T03:44:53.700Z,6.77
2018-10-16T03:47:22.547Z,6.50
2018-10-16T03:49:51.322Z,6.70
2018-10-16T03:52:20.143Z,6.83
2018-10-16T03:54:48.934Z,7.03
2018-10-16T03:57:17.786Z,7.40
2018-10-16T03:59:46.576Z,7.23
2018-10-16T04:02:15.408Z,6.63
2018-10-16T04:04:44.224Z,6.70
2018-10-16T04:07:13.034Z,7.17
2018-10-16T04:09:41.860Z,7.40
2018-10-16T04:12:10.688Z,6.80
2018-10-16T04:14:39.570Z,7.40
2018-10-16T04:17:08.378Z,6.97
2018-10-16T04:19:37.290Z,7.50
2018-10-16T04:22:06.098Z,7.97
2018-10-16T04:24:34.920Z,6.77
2018-10-16T04:27:03.727Z,7.63
2018-10-16T04:29:32.574Z,8.00
2018-10-16T04:32:01.372Z,8.33
2018-10-16T04:34:30.172Z,6.77
2018-10-16T04:36:58.993Z,6.50
2018-10-16T04:39:27.808Z,6.07
2018-10-16T04:41:56.622Z,6.60
2018-10-16T04:44:25.456Z,6.37
2018-10-16T04:46:54.251Z,6.80
2018-10-16T04:49:23.056Z,6.33
2018-10-16T04:51:51.880Z,8.00
2018-10-16T04:54:20.714Z,6.57
2018-10-16T04:56:49.560Z,7.37
2018-10-16T04:59:18.367Z,7.33
2018-10-16T05:01:47.187Z,7.00
2018-10-16T05:04:16.092Z,6.87
2018-10-16T05:06:44.832Z,7.83
2018-10-16T05:09:13.643Z,7.57
2018-10-16T05:11:45.874Z,7.50
2018-10-16T05:14:14.691Z,9.50
2018-10-16T05:16:43.531Z,9.63
2018-10-16T05:19:12.687Z,7.63
2018-10-16T05:21:42.248Z,7.97
2018-10-16T05:24:11.752Z,7.70
2018-10-16T05:26:40.847Z,8.87
2018-10-16T05:29:10.555Z,7.13
2018-10-16T05:31:39.499Z,8.23
2018-10-16T05:36:45.867Z,7.97
2018-10-16T05:39:14.701Z,7.40
2018-10-16T05:41:49.535Z,7.90
2018-10-16T05:44:18.359Z,9.10
2018-10-16T05:46:47.179Z,7.47
2018-10-16T05:49:16.000Z,7.57
2018-10-16T05:51:47.291Z,7.53
2018-10-16T05:54:16.099Z,7.37
2018-10-16T05:56:45.796Z,7.80
2018-10-16T05:59:14.621Z,8.30
2018-10-16T06:01:43.989Z,7.80
2018-10-16T06:04:12.802Z,6.83
2018-10-16T06:06:41.623Z,7.47
2018-10-16T06:09:11.948Z,7.90
2018-10-16T06:11:40.805Z,8.50
2018-10-16T06:14:09.890Z,6.83
2018-10-16T06:16:39.939Z,7.13
2018-10-16T06:19:10.123Z,6.63
2018-10-16T06:24:38.055Z,7.63
2018-10-16T06:27:06.964Z,7.87
2018-10-16T06:29:35.797Z,6.70
2018-10-16T06:32:04.828Z,7.20
2018-10-16T06:34:33.667Z,6.50
2018-10-16T06:37:02.586Z,6.37
2018-10-16T06:39:32.642Z,7.47
2018-10-16T06:42:01.471Z,6.23
2018-10-16T06:44:30.354Z,6.43
2018-10-16T06:46:59.178Z,6.43
2018-10-16T06:49:28.050Z,6.10
2018-10-16T06:51:56.980Z,6.90
2018-10-16T06:54:25.834Z,6.60
2018-10-16T06:56:54.759Z,6.40
2018-10-16T06:59:23.603Z,7.17
2018-10-16T07:01:52.528Z,6.73
2018-10-16T07:04:21.451Z,7.43
2018-10-16T07:06:50.256Z,6.23
2018-10-16T07:09:19.122Z,6.80
2018-10-16T07:11:47.947Z,6.60
2018-10-16T07:14:16.787Z,6.50
2018-10-16T07:16:45.605Z,7.00
2018-10-16T07:19:14.419Z,6.63
2018-10-16T07:21:43.338Z,6.93
2018-10-16T07:24:12.137Z,6.30
2018-10-16T07:26:40.946Z,7.20
2018-10-16T07:29:09.800Z,7.43
2018-10-16T07:31:38.618Z,7.53
2018-10-16T07:34:07.430Z,7.50
2018-10-16T07:36:36.265Z,7.30
2018-10-16T07:39:08.257Z,7.33
2018-10-16T07:41:37.149Z,6.63
2018-10-16T07:44:06.043Z,7.87
2018-10-16T07:46:34.943Z,7.47
2018-10-16T07:49:03.840Z,8.00
2018-10-16T07:51:32.781Z,7.23
2018-10-16T07:54:01.615Z,7.23
2018-10-16T07:56:30.446Z,7.47
2018-10-16T07:58:59.276Z,6.93
2018-10-16T08:01:28.590Z,7.77
2018-10-16T08:03:57.415Z,7.50
2018-10-16T08:06:26.228Z,7.80
2018-10-16T08:08:55.055Z,7.93
2018-10-16T08:11:23.902Z,8.07
2018-10-16T08:13:52.682Z,7.60
2018-10-16T08:16:21.501Z,8.70
2018-10-16T08:18:50.328Z,8.23
2018-10-16T08:21:19.138Z,8.03
2018-10-16T08:23:47.958Z,8.03
2018-10-16T08:26:16.775Z,7.47
2018-10-16T08:28:46.495Z,7.80
2018-10-16T08:31:15.999Z,7.80
2018-10-16T08:33:45.272Z,7.53
2018-10-16T08:36:14.555Z,7.97
2018-10-16T08:39:52.453Z,7.87
2018-10-16T08:43:44.556Z,7.60
2018-10-16T08:46:25.017Z,8.03
2018-10-16T08:49:05.684Z,8.40
2018-10-16T08:51:54.935Z,8.70
2018-10-16T08:54:24.485Z,9.57
2018-10-16T08:56:53.300Z,9.30
2018-10-16T08:59:22.259Z,9.23
2018-10-16T09:01:51.088Z,9.70
2018-10-16T09:04:20.118Z,9.20
2018-10-16T09:06:49.055Z,9.13
2018-10-16T09:09:18.610Z,9.60
2018-10-16T09:11:48.635Z,9.60
2018-10-16T09:14:17.877Z,9.97
2018-10-16T09:16:46.905Z,9.40
2018-10-16T09:19:15.754Z,10.83
2018-10-16T09:21:44.679Z,10.10
2018-10-16T09:24:14.006Z,10.10
2018-10-16T09:26:42.871Z,9.67
2018-10-16T09:29:11.772Z,9.90
2018-10-16T09:31:40.766Z,9.50
2018-10-16T09:34:09.600Z,9.47
2018-10-16T09:36:38.463Z,10.00
2018-10-16T09:39:09.747Z,9.87
2018-10-16T09:41:38.713Z,9.77
2018-10-16T09:44:07.578Z,10.40
2018-10-16T09:46:36.586Z,9.20
2018-10-16T09:49:06.161Z,9.23
2018-10-16T09:51:35.078Z,10.03
2018-10-16T09:54:08.836Z,9.10
2018-10-16T09:56:38.324Z,8.90
2018-10-16T09:59:07.319Z,9.73
2018-10-16T10:01:41.447Z,9.57
2018-10-16T10:07:22.229Z,9.80
2018-10-16T10:10:13.993Z,9.47
2018-10-16T10:12:42.892Z,9.83
2018-10-16T10:15:11.770Z,9.07
2018-10-16T10:17:40.594Z,9.53
2018-10-16T10:20:09.690Z,9.77
2018-10-16T10:22:43.087Z,9.00
2018-10-16T10:25:11.891Z,9.97
2018-10-16T10:27:40.706Z,8.90
2018-10-16T10:30:11.119Z,9.60
2018-10-16T10:32:39.946Z,9.53
2018-10-16T10:35:10.296Z,9.93
2018-10-16T10:37:39.176Z,9.70
2018-10-16T10:40:08.028Z,8.60
2018-10-16T10:42:36.865Z,9.83
2018-10-16T10:45:07.527Z,10.20
2018-10-16T10:47:36.601Z,9.73
2018-10-16T10:50:07.669Z,9.40
2018-10-16T10:52:36.443Z,10.80
2018-10-16T10:55:06.616Z,10.63
2018-10-16T10:57:35.959Z,10.03
2018-10-16T11:00:05.619Z,10.27
2018-10-16T11:02:34.539Z,10.53
2018-10-16T11:05:03.367Z,9.53
2018-10-16T11:07:32.200Z,10.10
2018-10-16T11:10:01.045Z,10.07
2018-10-16T11:12:29.879Z,9.93
2018-10-16T11:14:58.714Z,9.50
2018-10-16T11:17:28.059Z,9.17
2018-10-16T11:20:10.295Z,10.70
2018-10-16T11:22:42.473Z,9.63
2018-10-16T11:25:11.940Z,9.70
2018-10-16T11:27:40.707Z,9.43
2018-10-16T11:30:12.567Z,9.67
2018-10-16T11:35:39.388Z,9.70
2018-10-16T11:38:08.235Z,9.17
2018-10-16T11:40:37.106Z,8.73
2018-10-16T11:43:05.938Z,9.00
2018-10-16T11:45:34.904Z,8.77
2018-10-16T11:48:03.751Z,8.83
2018-10-16T11:50:32.567Z,8.77
2018-10-16T11:53:01.394Z,8.40
2018-10-16T11:55:30.216Z,9.37
2018-10-16T11:57:59.074Z,8.30
2018-10-16T12:00:27.904Z,8.10
2018-10-16T12:02:56.739Z,8.50
2018-10-16T12:05:25.751Z,7.30
2018-10-16T12:07:54.605Z,7.63
2018-10-16T12:10:23.649Z,7.60
2018-10-16T12:12:52.526Z,7.63
2018-10-16T12:15:21.350Z,7.17
2018-10-16T12:17:55.326Z,7.63
2018-10-16T12:20:27.396Z,7.33
2018-10-16T12:22:56.810Z,7.67
2018-10-16T12:25:25.636Z,7.70
2018-10-16T12:27:54.516Z,7.47
2018-10-16T12:30:23.342Z,7.03
2018-10-16T12:32:52.167Z,6.80
2018-10-16T12:38:16.784Z,6.47
2018-10-16T12:40:45.560Z,6.63
2018-10-16T12:43:14.459Z,6.10
2018-10-16T12:45:43.428Z,6.20
2018-10-16T12:48:12.368Z,6.07
2018-10-16T12:50:41.420Z,7.00
2018-10-16T12:53:10.550Z,6.07
2018-10-16T12:55:39.264Z,6.23
2018-10-16T12:58:08.182Z,6.43
2018-10-16T13:00:37.007Z,5.63
2018-10-16T13:03:05.967Z,6.27
2018-10-16T13:05:34.764Z,5.13
2018-10-16T13:08:03.905Z,6.00
2018-10-16T13:10:32.740Z,5.67
2018-10-16T13:13:01.583Z,6.07
2018-10-16T13:15:30.412Z,6.33
2018-10-16T13:17:59.518Z,5.90
2018-10-16T13:20:28.955Z,6.20
2018-10-16T13:22:57.890Z,6.03
2018-10-16T13:25:26.688Z,10.83
2018-10-16T13:27:55.539Z,6.17
2018-10-16T13:30:24.371Z,6.07
2018-10-16T13:32:53.206Z,5.37
2018-10-16T13:35:22.176Z,5.67
2018-10-16T13:37:51.008Z,6.00
2018-10-16T13:40:19.807Z,5.53
2018-10-16T13:42:48.717Z,5.40
2018-10-16T13:45:17.860Z,5.13
2018-10-16T13:47:46.709Z,5.27
2018-10-16T13:50:16.451Z,4.73
2018-10-16T13:52:45.848Z,4.73
2018-10-16T13:55:15.093Z,4.23
2018-10-16T13:57:44.192Z,4.90
2018-10-16T14:00:16.277Z,4.90
2018-10-16T14:02:46.268Z,5.87
2018-10-16T14:05:15.087Z,6.33
2018-10-16T14:07:43.986Z,5.33
2018-10-16T14:10:14.000Z,5.87
2018-10-16T14:12:43.932Z,6.07
2018-10-16T14:15:13.479Z,6.13
2018-10-16T14:17:42.315Z,5.10
2018-10-16T14:20:11.411Z,5.83
2018-10-16T14:22:41.235Z,4.60
2018-10-16T14:25:11.384Z,5.13
2018-10-16T14:27:40.987Z,5.30
2018-10-16T14:30:15.168Z,5.27
2018-10-16T14:32:44.294Z,5.00
2018-10-16T14:35:13.692Z,5.70
2018-10-16T14:37:42.580Z,5.13
2018-10-16T14:40:13.127Z,6.73
2018-10-16T14:42:42.607Z,4.83
2018-10-16T14:45:12.336Z,5.50
2018-10-16T14:47:41.173Z,5.07
2018-10-16T14:50:11.286Z,5.53
2018-10-16T14:52:40.164Z,5.40
2018-10-16T14:55:08.987Z,4.90
2018-10-16T14:57:37.825Z,5.10
2018-10-16T15:00:08.664Z,5.10
2018-10-16T15:02:37.713Z,5.53
2018-10-16T15:05:07.557Z,5.40
2018-10-16T15:07:36.635Z,5.23
2018-10-16T15:10:06.555Z,4.93
2018-10-16T15:12:35.386Z,5.30
2018-10-16T15:15:04.630Z,5.50
2018-10-16T15:17:33.488Z,5.17
2018-10-16T15:20:02.404Z,4.93
2018-10-16T15:22:45.133Z,5.23
2018-10-16T15:25:23.735Z,5.33
2018-10-16T15:27:52.669Z,5.20
2018-10-16T15:30:21.483Z,5.33
2018-10-16T15:32:53.634Z,5.13
2018-10-16T15:35:22.445Z,5.40
2018-10-16T15:37:56.193Z,5.27
2018-10-16T15:40:24.950Z,4.80
2018-10-16T15:42:53.784Z,5.23
2018-10-16T15:45:23.288Z,5.20
2018-10-16T15:47:52.144Z,5.10
2018-10-16T15:50:20.969Z,5.10
2018-10-16T15:53:09.793Z,5.00
2018-10-16T15:55:45.135Z,5.57
2018-10-16T15:58:14.027Z,5.57
2018-10-16T16:00:42.768Z,5.93
2018-10-16T16:03:24.323Z,5.43
2018-10-16T16:05:53.225Z,5.33
2018-10-16T16:08:22.051Z,6.07
2018-10-16T16:10:50.943Z,5.63
2018-10-16T16:13:19.748Z,5.83
2018-10-16T16:15:48.614Z,5.53
2018-10-16T16:18:18.181Z,5.30
2018-10-16T16:20:47.020Z,6.30
2018-10-16T16:23:15.912Z,6.23
2018-10-16T16:25:44.872Z,7.03
2018-10-16T16:28:13.744Z,6.97
2018-10-16T16:30:42.532Z,6.70
2018-10-16T16:33:17.988Z,7.03
2018-10-16T16:35:46.867Z,6.17
2018-10-16T16:38:15.810Z,7.03
2018-10-16T16:40:44.567Z,7.57
2018-10-16T16:43:13.522Z,6.57
2018-10-16T16:45:42.351Z,6.73
2018-10-16T16:48:11.223Z,7.30
2018-10-16T16:50:40.054Z,7.23
2018-10-16T16:53:08.953Z,6.73
2018-10-16T16:55:37.702Z,7.27
2018-10-16T16:58:06.566Z,7.23
2018-10-16T17:00:35.339Z,7.23
2018-10-16T17:03:04.224Z,7.23
2018-10-16T17:05:33.079Z,7.10
2018-10-16T17:08:02.011Z,6.13
2018-10-16T17:10:30.832Z,5.97
2018-10-16T17:12:59.652Z,6.90
2018-10-16T17:15:28.553Z,7.43
2018-10-16T17:17:57.446Z,7.23
2018-10-16T17:20:26.246Z,7.07
2018-10-16T17:22:55.106Z,7.20
2018-10-16T17:25:24.307Z,7.70
2018-10-16T17:27:52.854Z,6.73
2018-10-16T17:30:21.939Z,7.20
2018-10-16T17:32:50.893Z,6.73
2018-10-16T17:35:19.680Z,6.77
2018-10-16T17:37:48.504Z,7.20
2018-10-16T17:40:17.752Z,7.70
2018-10-16T17:42:46.679Z,7.90
2018-10-16T17:45:16.589Z,7.70
2018-10-16T17:47:45.516Z,7.23
2018-10-16T17:50:16.062Z,7.77
2018-10-16T17:52:53.384Z,8.17
2018-10-16T17:55:22.214Z,8.53
2018-10-16T17:57:51.084Z,8.20
2018-10-16T18:00:20.058Z,8.20
2018-10-16T18:02:48.903Z,7.60
2018-10-16T18:05:17.715Z,7.43
2018-10-16T18:07:46.910Z,8.17
2018-10-16T18:10:15.871Z,8.73
2018-10-16T18:12:45.903Z,8.60
2018-10-16T18:18:15.294Z,10.67
2018-10-16T18:20:44.207Z,8.97
2018-10-16T18:23:13.044Z,14.90
2018-10-16T18:25:42.168Z,12.50
2018-10-16T18:28:11.090Z,13.37
2018-10-16T18:30:40.043Z,11.57
2018-10-16T18:33:08.911Z,18.23
2018-10-16T18:35:44.908Z,17.97
2018-10-16T18:38:14.086Z,14.23
2018-10-16T18:40:43.155Z,14.20
2018-10-16T18:43:11.984Z,15.50
2018-10-16T18:45:41.279Z,14.40
2018-10-16T18:48:10.127Z,14.67
2018-10-16T18:50:38.963Z,12.77
2018-10-16T18:53:08.079Z,12.20
2018-10-16T18:55:37.130Z,12.13
2018-10-16T18:58:06.299Z,11.60
2018-10-16T19:00:35.183Z,11.30
2018-10-16T19:03:10.287Z,11.37
2018-10-16T19:05:39.156Z,10.53
2018-10-16T19:08:08.168Z,10.67
2018-10-16T19:10:37.040Z,11.50
2018-10-16T19:13:06.048Z,12.07
2018-10-16T19:15:34.904Z,12.90
2018-10-16T19:18:03.993Z,11.70
2018-10-16T19:20:32.869Z,11.93
2018-10-16T19:23:01.710Z,9.87
2018-10-16T19:25:30.576Z,9.00
2018-10-16T19:27:59.418Z,9.07
2018-10-16T19:30:28.384Z,8.57
2018-10-16T19:32:57.301Z,8.53
2018-10-16T19:35:26.211Z,8.60
2018-10-16T19:37:55.103Z,8.30
2018-10-16T19:40:23.952Z,8.57
2018-10-16T19:42:52.774Z,8.30
2018-10-16T19:45:34.443Z,9.37
2018-10-16T19:48:03.264Z,9.27
2018-10-16T19:50:32.228Z,8.63
2018-10-16T19:53:02.911Z,8.80
2018-10-16T19:55:32.172Z,9.80
2018-10-16T19:58:03.633Z,9.60
2018-10-16T20:00:35.918Z,9.37
2018-10-16T20:03:05.633Z,8.97
2018-10-16T20:05:34.460Z,10.00
2018-10-16T20:08:03.270Z,9.20
2018-10-16T20:13:42.445Z,9.90
2018-10-16T20:16:11.283Z,9.83
2018-10-16T20:18:40.231Z,9.17
2018-10-16T20:21:09.198Z,9.63
2018-10-16T20:23:39.015Z,8.30
2018-10-16T20:26:07.880Z,8.87
2018-10-16T20:28:36.842Z,9.53
2018-10-16T20:31:05.797Z,8.93
2018-10-16T20:33:34.604Z,9.73
2018-10-16T20:36:03.419Z,9.67
2018-10-16T20:38:32.258Z,10.50
2018-10-16T20:41:07.396Z,11.33
2018-10-16T20:43:36.752Z,10.57
2018-10-16T20:46:06.012Z,11.57
2018-10-16T20:48:34.963Z,12.03
2018-10-16T20:51:03.953Z,12.07
2018-10-16T20:53:33.548Z,11.10
2018-10-16T20:56:03.486Z,10.70
2018-10-16T20:58:32.315Z,9.93
2018-10-16T21:01:01.938Z,11.50
2018-10-16T21:03:30.755Z,9.60
2018-10-16T21:06:00.214Z,11.00
2018-10-16T21:08:28.874Z,10.50
2018-10-16T21:10:57.718Z,10.87
2018-10-16T21:13:26.534Z,10.97
2018-10-16T21:15:55.379Z,11.30
2018-10-16T21:18:24.190Z,10.73
2018-10-16T21:20:53.082Z,10.33
2018-10-16T21:23:21.906Z,11.40
2018-10-16T21:25:50.734Z,11.50
2018-10-16T21:28:19.550Z,11.73
2018-10-16T21:30:48.374Z,10.50
2018-10-16T21:33:17.186Z,10.37
2018-10-16T21:35:46.007Z,10.30
2018-10-16T21:38:14.823Z,10.60
2018-10-16T21:40:43.643Z,9.40
2018-10-16T21:43:12.557Z,10.17
2018-10-16T21:45:41.314Z,9.87
2018-10-16T21:48:10.135Z,9.97
2018-10-16T21:50:38.954Z,9.87
2018-10-16T21:53:07.857Z,9.87
2018-10-16T21:55:36.679Z,9.27
2018-10-16T21:58:05.558Z,10.43
2018-10-16T22:00:40.047Z,9.97
2018-10-16T22:03:08.868Z,9.67
2018-10-16T22:05:37.678Z,10.73
2018-10-16T22:08:06.532Z,10.83
2018-10-16T22:10:35.329Z,9.83
2018-10-16T22:13:08.964Z,10.53
2018-10-16T22:15:37.791Z,10.53
2018-10-16T22:18:06.611Z,10.43
2018-10-16T22:20:35.502Z,9.87
2018-10-16T22:23:04.631Z,10.47
2018-10-16T22:25:33.454Z,10.23
2018-10-16T22:28:02.277Z,10.57
2018-10-16T22:30:31.091Z,10.87
2018-10-16T22:32:59.914Z,10.93
2018-10-16T22:35:28.733Z,10.50
2018-10-16T22:37:57.546Z,11.10
2018-10-16T22:40:26.361Z,10.33
2018-10-16T22:42:55.215Z,10.87
2018-10-16T22:45:24.003Z,10.53
2018-10-16T22:47:52.810Z,9.70
2018-10-16T22:50:21.615Z,9.90
2018-10-16T22:52:50.427Z,11.07
2018-10-16T22:55:19.231Z,10.40
2018-10-16T22:57:48.099Z,10.97
2018-10-16T23:00:17.983Z,9.77
2018-10-16T23:02:47.586Z,10.03
2018-10-16T23:05:16.457Z,9.57
2018-10-16T23:07:46.392Z,11.17
2018-10-16T23:10:15.578Z,11.17
2018-10-16T23:12:44.913Z,10.43
2018-10-16T23:15:13.718Z,10.67
2018-10-16T23:17:42.538Z,11.43
2018-10-16T23:20:12.178Z,10.73
2018-10-16T23:22:41.088Z,10.93
2018-10-16T23:25:09.949Z,12.60
2018-10-16T23:27:38.723Z,11.07
2018-10-16T23:30:07.552Z,12.47
2018-10-16T23:32:36.358Z,12.87
2018-10-16T23:35:05.514Z,12.60
2018-10-16T23:37:34.314Z,12.27
2018-10-16T23:40:03.134Z,11.57
2018-10-16T23:42:31.970Z,13.60
2018-10-16T23:45:00.814Z,13.07
2018-10-16T23:47:29.670Z,13.10
2018-10-16T23:49:58.494Z,13.47
2018-10-16T23:52:27.323Z,12.00
2018-10-16T23:54:56.173Z,11.73
2018-10-16T23:57:25.047Z,12.13
2018-10-16T23:59:53.866Z,12.33
